Time;durP1;ratioP1;P1;durP2;ratioP2;P2;SDS_P1;SDS_P2;PMS_P1;PMS_P2;Temp;Humidity;BMP_temperature;BMP_pressure;BME280_temperature;BME280_humidity;BME280_pressure;Samples;Min_cycle;Max_cycle;Signal;HPM_P1;HPM_P2
2022/05/03 00:00:11;;;;;;;7.80;5.63;;;6.30;99.90;;;;;;5034769;28;20057;-80
2022/05/03 00:02:58;;;;;;;6.47;5.38;;;6.20;99.90;;;;;;5025925;28;20077;-81
2022/05/03 00:05:43;;;;;;;6.95;6.15;;;6.20;99.90;;;;;;5014113;28;20041;-81
2022/05/03 00:08:30;;;;;;;6.18;5.28;;;6.10;99.90;;;;;;5047874;28;20049;-81
2022/05/03 00:11:28;;;;;;;6.90;5.88;;;6.10;99.90;;;;;;5024291;28;20100;-80
2022/05/03 00:14:20;;;;;;;6.80;5.38;;;6.10;99.90;;;;;;5041307;28;20080;-81
2022/05/03 00:16:48;;;;;;;7.50;5.82;;;6.00;99.90;;;;;;5031254;28;20080;-80
2022/05/03 00:19:14;;;;;;;6.90;6.22;;;6.00;99.90;;;;;;5048416;28;20055;-80
2022/05/03 00:21:40;;;;;;;8.20;6.80;;;6.00;99.90;;;;;;5020503;28;20037;-80
2022/05/03 00:24:06;;;;;;;7.82;6.68;;;6.00;99.90;;;;;;5031168;28;20041;-80
2022/05/03 00:26:33;;;;;;;7.95;7.15;;;5.90;99.90;;;;;;5039646;28;20049;-80
2022/05/03 00:28:59;;;;;;;7.18;6.47;;;5.90;99.90;;;;;;5029945;28;20080;-81
2022/05/03 00:31:27;;;;;;;7.63;6.82;;;5.90;99.90;;;;;;5053265;28;20136;-80
2022/05/03 00:33:54;;;;;;;7.10;6.40;;;5.80;99.90;;;;;;5031255;28;20575;-80
2022/05/03 00:36:20;;;;;;;7.20;6.50;;;5.80;99.90;;;;;;5014333;28;20037;-80
2022/05/03 00:38:45;;;;;;;7.93;7.13;;;5.80;99.90;;;;;;5032112;28;20037;-80
2022/05/03 00:41:17;;;;;;;7.78;6.88;;;5.80;99.90;;;;;;5046916;28;20136;-80
2022/05/03 00:44:01;;;;;;;8.13;7.32;;;5.80;99.90;;;;;;5035668;28;20083;-81
2022/05/03 00:46:30;;;;;;;8.45;7.00;;;5.80;99.90;;;;;;5028740;28;20049;-81
2022/05/03 00:49:25;;;;;;;7.72;7.03;;;5.80;99.90;;;;;;5030359;28;20094;-81
2022/05/03 00:52:19;;;;;;;8.60;7.25;;;5.70;99.90;;;;;;5013622;28;20044;-81
2022/05/03 00:55:16;;;;;;;6.90;6.30;;;5.70;99.90;;;;;;5040848;28;20064;-81
2022/05/03 00:57:44;;;;;;;8.02;6.85;;;5.70;99.90;;;;;;5030519;28;20044;-81
2022/05/03 01:00:13;;;;;;;7.47;6.75;;;5.70;99.90;;;;;;5029533;28;20407;-81
2022/05/03 01:03:07;;;;;;;8.40;6.95;;;5.60;99.90;;;;;;5026188;28;20041;-81
2022/05/03 01:05:58;;;;;;;8.02;7.22;;;5.60;99.90;;;;;;5036018;28;20041;-81
2022/05/03 01:08:33;;;;;;;8.40;7.40;;;5.50;99.90;;;;;;5028124;28;20045;-81
2022/05/03 01:11:10;;;;;;;9.57;7.57;;;5.50;99.90;;;;;;5037181;28;20120;-80
2022/05/03 01:14:01;;;;;;;8.32;7.53;;;5.50;99.90;;;;;;5029451;28;20041;-81
2022/05/03 01:16:36;;;;;;;9.18;6.40;;;5.40;99.90;;;;;;5017785;28;20048;-81
2022/05/03 01:19:04;;;;;;;6.80;6.20;;;5.40;99.90;;;;;;5045088;28;20040;-81
2022/05/03 01:21:52;;;;;;;6.63;5.68;;;5.30;99.90;;;;;;5051624;28;20379;-81
2022/05/03 01:24:48;;;;;;;7.00;6.20;;;5.30;99.90;;;;;;5040978;28;20115;-81
2022/05/03 01:27:23;;;;;;;8.05;6.95;;;5.20;99.90;;;;;;5029272;28;20072;-81
2022/05/03 01:29:50;;;;;;;7.85;6.82;;;5.20;99.90;;;;;;5027096;28;20402;-81
2022/05/03 01:32:19;;;;;;;7.97;7.07;;;5.20;99.90;;;;;;5027917;28;20773;-81
2022/05/03 01:34:46;;;;;;;10.85;7.22;;;5.20;99.90;;;;;;5026771;28;20037;-81
2022/05/03 01:37:27;;;;;;;7.05;6.35;;;5.10;99.90;;;;;;5030714;28;20064;-81
2022/05/03 01:40:04;;;;;;;6.95;6.25;;;5.10;99.90;;;;;;5028913;28;20126;-81
2022/05/03 01:42:58;;;;;;;6.68;5.70;;;5.20;99.90;;;;;;5028365;28;20490;-81
2022/05/03 01:45:30;;;;;;;7.85;6.97;;;5.10;99.90;;;;;;5021347;28;20041;-81
2022/05/03 01:47:56;;;;;;;;;;;5.10;99.90;;;;;;5029812;28;20052;-81
2022/05/03 01:50:29;;;;;;;7.20;6.50;;;5.10;99.90;;;;;;5042656;28;19930;-81
2022/05/03 01:53:20;;;;;;;8.13;7.32;;;5.00;99.90;;;;;;5028327;28;20582;-81
2022/05/03 01:55:45;;;;;;;8.00;7.07;;;5.00;99.90;;;;;;5028936;28;20043;-81
2022/05/03 01:58:33;;;;;;;7.20;6.40;;;5.00;99.90;;;;;;5028324;28;20551;-81
2022/05/03 02:01:27;;;;;;;8.65;7.00;;;5.00;99.90;;;;;;5028116;28;20040;-81
2022/05/03 02:04:14;;;;;;;7.72;7.03;;;4.90;99.90;;;;;;5018434;28;20136;-81
2022/05/03 02:06:58;;;;;;;8.32;7.30;;;4.90;99.90;;;;;;5028719;28;20033;-81
2022/05/03 02:10:01;;;;;;;7.38;6.22;;;4.80;99.90;;;;;;5028139;28;20041;-81
2022/05/03 02:12:27;;;;;;;4.80;4.40;;;4.80;99.90;;;;;;5030560;28;20132;-81
2022/05/03 02:15:04;;;;;;;4.35;3.95;;;4.80;99.90;;;;;;5030061;28;20091;-81
2022/05/03 02:17:40;;;;;;;4.10;3.75;;;4.80;99.90;;;;;;5037876;28;20611;-81
2022/05/03 02:20:42;;;;;;;4.68;4.20;;;4.80;99.90;;;;;;5048269;28;20041;-81
2022/05/03 02:23:43;;;;;;;5.43;4.80;;;4.80;99.90;;;;;;5024111;28;20045;-81
2022/05/03 02:26:30;;;;;;;4.18;3.80;;;4.80;99.90;;;;;;5029245;28;20506;-81
2022/05/03 02:29:15;;;;;;;4.60;4.10;;;4.80;99.90;;;;;;5044835;28;20442;-81
2022/05/03 02:32:04;;;;;;;4.97;4.55;;;4.80;99.90;;;;;;5029570;28;20038;-81
2022/05/03 02:34:40;;;;;;;4.50;4.10;;;4.70;99.90;;;;;;5027662;28;20519;-81
2022/05/03 02:37:17;;;;;;;4.97;4.57;;;4.70;99.90;;;;;;5029590;28;20060;-81
2022/05/03 02:39:59;;;;;;;5.40;4.90;;;4.70;99.90;;;;;;5031623;28;20046;-81
2022/05/03 02:42:25;;;;;;;5.63;5.13;;;4.70;99.90;;;;;;5032414;28;20041;-81
2022/05/03 02:44:55;;;;;;;5.65;5.15;;;4.60;99.90;;;;;;5033695;28;20042;-81
2022/05/03 02:47:43;;;;;;;5.90;5.40;;;4.60;99.90;;;;;;5032203;28;20057;-81
2022/05/03 02:50:20;;;;;;;5.40;4.90;;;4.60;99.90;;;;;;5032232;28;20037;-81
2022/05/03 02:53:02;;;;;;;5.82;5.32;;;4.60;99.90;;;;;;5027588;28;20034;-81
2022/05/03 02:55:46;;;;;;;5.63;5.13;;;4.60;99.90;;;;;;5037039;28;20044;-81
2022/05/03 02:58:31;;;;;;;5.68;5.18;;;4.40;99.90;;;;;;5056097;28;20048;-81
2022/05/03 03:04:03;;;;;;;5.68;5.18;;;4.50;99.90;;;;;;5031356;28;20045;-81
2022/05/03 03:06:36;;;;;;;7.18;5.82;;;4.50;99.90;;;;;;5034828;28;20511;-81
2022/05/03 03:09:03;;;;;;;6.10;5.57;;;4.40;99.90;;;;;;5033437;28;20145;-82
2022/05/03 03:11:52;;;;;;;6.50;5.90;;;4.40;99.90;;;;;;5037508;28;20083;-81
2022/05/03 03:14:46;;;;;;;6.75;6.10;;;4.40;99.90;;;;;;5029629;28;20049;-81
2022/05/03 03:17:19;;;;;;;6.25;5.65;;;4.40;99.90;;;;;;5048699;28;20067;-81
2022/05/03 03:19:51;;;;;;;7.13;6.43;;;4.40;99.90;;;;;;5038622;28;20056;-81
2022/05/03 03:22:20;;;;;;;6.40;5.72;;;4.30;99.90;;;;;;5049362;28;20394;-81
2022/05/03 03:24:47;;;;;;;6.13;5.63;;;4.30;99.90;;;;;;5034181;28;20068;-81
2022/05/03 03:27:14;;;;;;;6.82;6.13;;;4.30;99.90;;;;;;5030672;28;20128;-81
2022/05/03 03:29:41;;;;;;;6.82;6.22;;;4.40;99.90;;;;;;5051058;28;20044;-81
2022/05/03 03:32:09;;;;;;;7.07;6.38;;;4.40;99.90;;;;;;5033202;28;20357;-81
2022/05/03 03:34:37;;;;;;;7.38;6.22;;;4.50;99.90;;;;;;5037518;28;20034;-81
2022/05/03 03:37:07;;;;;;;9.68;7.65;;;4.50;99.90;;;;;;5033546;28;20046;-81
2022/05/03 03:39:34;;;;;;;7.22;6.50;;;4.60;99.90;;;;;;5020810;28;20053;-81
2022/05/03 03:42:06;;;;;;;7.72;6.95;;;4.60;99.90;;;;;;5035813;28;20041;-81
2022/05/03 03:44:32;;;;;;;7.47;6.78;;;4.70;99.90;;;;;;5043905;28;20047;-81
2022/05/03 03:47:00;;;;;;;7.63;6.93;;;4.80;99.90;;;;;;5031647;28;20112;-81
2022/05/03 03:49:26;;;;;;;8.63;7.82;;;4.90;99.90;;;;;;5048417;28;20038;-81
2022/05/03 03:51:52;;;;;;;9.05;8.07;;;4.90;99.90;;;;;;5031859;28;20064;-81
2022/05/03 03:54:19;;;;;;;8.07;7.15;;;5.00;99.90;;;;;;5035498;28;20076;-81
2022/05/03 03:56:45;;;;;;;7.85;7.05;;;5.10;99.90;;;;;;5034909;28;20737;-81
2022/05/03 03:59:13;;;;;;;6.82;6.22;;;5.10;99.90;;;;;;5032964;28;20154;-81
2022/05/03 04:01:40;;;;;;;6.57;5.53;;;5.20;99.90;;;;;;5016933;28;20041;-81
2022/05/03 04:04:07;;;;;;;6.80;6.07;;;5.30;99.90;;;;;;5031954;28;20132;-81
2022/05/03 04:06:34;;;;;;;7.45;6.63;;;5.40;99.90;;;;;;5031723;28;20037;-81
2022/05/03 04:09:00;;;;;;;7.47;6.78;;;5.40;99.90;;;;;;5031411;28;20048;-81
2022/05/03 04:11:25;;;;;;;7.97;7.18;;;5.40;99.90;;;;;;5033098;28;20037;-82
2022/05/03 04:13:52;;;;;;;11.57;8.32;;;5.40;99.90;;;;;;5035781;28;20491;-81
2022/05/03 04:16:18;;;;;;;9.15;7.85;;;5.40;99.90;;;;;;5027577;28;20510;-81
2022/05/03 04:18:44;;;;;;;9.07;7.70;;;5.40;99.90;;;;;;5029685;28;20033;-81
2022/05/03 04:21:19;;;;;;;11.43;8.02;;;5.40;99.90;;;;;;5032994;28;20044;-81
2022/05/03 04:23:45;;;;;;;9.27;7.85;;;5.40;99.90;;;;;;5046279;28;20037;-82
2022/05/03 04:26:12;;;;;;;9.60;8.52;;;5.30;99.90;;;;;;5024630;28;20087;-81
2022/05/03 04:28:38;;;;;;;8.50;7.70;;;5.40;99.90;;;;;;5028362;28;20048;-81
2022/05/03 04:31:04;;;;;;;8.43;7.40;;;5.40;99.90;;;;;;5029726;28;20064;-81
2022/05/03 04:33:30;;;;;;;8.00;7.20;;;5.40;99.90;;;;;;5026707;28;20037;-81
2022/05/03 04:35:56;;;;;;;7.80;7.05;;;5.50;99.90;;;;;;5045599;28;20037;-81
2022/05/03 04:38:21;;;;;;;8.35;7.55;;;5.50;99.90;;;;;;5013279;28;20171;-81
2022/05/03 04:40:47;;;;;;;7.85;7.15;;;5.60;99.90;;;;;;5028770;28;20095;-81
2022/05/03 04:43:12;;;;;;;8.48;7.68;;;5.70;99.90;;;;;;5029613;28;20045;-81
2022/05/03 04:45:38;;;;;;;9.65;8.40;;;5.80;99.90;;;;;;5029442;28;20124;-81
2022/05/03 04:48:04;;;;;;;9.57;8.57;;;6.00;99.90;;;;;;5029411;28;20049;-81
2022/05/03 04:50:30;;;;;;;9.30;8.40;;;6.00;99.90;;;;;;5025647;28;20562;-81
2022/05/03 04:52:56;;;;;;;9.38;8.48;;;6.20;99.90;;;;;;5046595;28;20132;-81
2022/05/03 04:55:23;;;;;;;9.60;8.32;;;6.20;99.90;;;;;;5028195;28;20054;-81
2022/05/03 04:57:52;;;;;;;9.68;8.55;;;6.30;99.90;;;;;;5015783;28;20037;-81
2022/05/03 05:00:18;;;;;;;15.75;9.40;;;6.40;99.90;;;;;;5023373;28;20053;-80
2022/05/03 05:02:44;;;;;;;9.93;8.93;;;6.50;99.90;;;;;;5046223;28;20033;-79
2022/05/03 05:05:09;;;;;;;10.70;9.60;;;6.50;99.90;;;;;;5012259;28;20045;-81
2022/05/03 05:07:35;;;;;;;10.85;9.85;;;6.60;99.90;;;;;;5023116;28;20364;-81
2022/05/03 05:12:45;;;;;;;12.10;10.85;;;6.70;99.90;;;;;;5029831;28;20033;-81
2022/05/03 05:15:10;;;;;;;12.43;10.88;;;6.90;99.90;;;;;;5028435;28;20037;-81
2022/05/03 05:17:36;;;;;;;12.15;10.95;;;7.00;99.90;;;;;;5028505;28;20042;-81
2022/05/03 05:20:02;;;;;;;11.30;10.30;;;7.00;99.90;;;;;;5044667;28;20399;-81
2022/05/03 05:22:28;;;;;;;13.25;11.50;;;7.10;99.90;;;;;;5011062;28;20038;-81
2022/05/03 05:24:53;;;;;;;14.02;11.18;;;7.20;99.90;;;;;;5028143;28;20041;-80
2022/05/03 05:27:19;;;;;;;13.20;11.90;;;7.30;99.90;;;;;;5030017;28;20080;-81
2022/05/03 05:29:45;;;;;;;13.95;12.45;;;7.40;99.90;;;;;;5029753;28;20041;-81
2022/05/03 05:32:10;;;;;;;15.48;13.23;;;7.40;99.90;;;;;;5013653;28;20040;-80
2022/05/03 05:34:36;;;;;;;14.02;12.00;;;7.50;99.90;;;;;;5013093;28;20048;-81
2022/05/03 05:37:02;;;;;;;14.38;12.85;;;7.60;99.90;;;;;;5028869;28;20060;-81
2022/05/03 05:39:27;;;;;;;14.18;12.50;;;7.70;99.90;;;;;;5035477;28;20053;-80
2022/05/03 05:41:56;;;;;;;16.17;13.82;;;7.70;99.90;;;;;;5026104;28;20041;-80
2022/05/03 05:44:22;;;;;;;14.85;13.35;;;7.80;99.90;;;;;;5028694;28;20124;-79
2022/05/03 05:46:48;;;;;;;15.25;13.75;;;7.90;99.90;;;;;;5061172;28;20659;-80
2022/05/03 05:49:13;;;;;;;16.10;14.50;;;7.90;99.90;;;;;;5029152;28;20558;-80
2022/05/03 05:51:39;;;;;;;15.50;13.85;;;8.00;99.90;;;;;;5027799;28;20490;-80
2022/05/03 05:54:04;;;;;;;16.00;14.40;;;8.10;99.90;;;;;;5029468;28;20034;-80
2022/05/03 05:56:30;;;;;;;16.15;14.65;;;8.10;99.90;;;;;;5029638;28;20037;-81
2022/05/03 05:58:56;;;;;;;17.10;15.40;;;8.10;99.90;;;;;;5030556;28;20044;-82
2022/05/03 06:01:35;;;;;;;16.40;14.70;;;8.20;99.90;;;;;;5027676;28;20044;-82
2022/05/03 06:04:00;;;;;;;17.33;15.63;;;8.30;99.90;;;;;;5014142;28;20091;-82
2022/05/03 06:06:26;;;;;;;19.50;17.52;;;8.40;99.90;;;;;;5026008;28;20041;-79
2022/05/03 06:08:51;;;;;;;18.60;16.70;;;8.40;99.90;;;;;;5027651;28;20045;-81
2022/05/03 06:11:17;;;;;;;20.92;18.65;;;8.50;99.90;;;;;;5029841;28;20179;-80
2022/05/03 06:13:42;;;;;;;21.83;18.00;;;8.40;99.90;;;;;;5034155;28;20052;-80
2022/05/03 06:16:09;;;;;;;19.65;17.65;;;8.50;99.90;;;;;;5033360;28;20037;-80
2022/05/03 06:18:35;;;;;;;22.20;18.48;;;8.60;99.90;;;;;;5037615;28;20033;-80
2022/05/03 06:21:03;;;;;;;23.60;19.73;;;8.70;99.90;;;;;;5048994;28;20041;-83
2022/05/03 06:23:29;;;;;;;23.90;20.75;;;8.70;99.90;;;;;;5032255;28;20466;-81
2022/05/03 06:25:54;;;;;;;23.33;20.80;;;8.70;99.90;;;;;;5030838;28;20048;-79
2022/05/03 06:28:20;;;;;;;24.55;21.33;;;8.80;99.90;;;;;;5031005;28;20052;-79
2022/05/03 06:30:46;;;;;;;23.95;21.42;;;8.80;99.90;;;;;;5031899;28;20243;-80
2022/05/03 06:33:11;;;;;;;25.15;20.55;;;8.80;99.90;;;;;;5029354;28;20036;-80
2022/05/03 06:35:37;;;;;;;24.80;21.75;;;8.90;99.90;;;;;;5030584;28;20037;-79
2022/05/03 06:38:03;;;;;;;24.48;21.10;;;8.90;99.90;;;;;;5031241;28;20053;-80
2022/05/03 06:40:29;;;;;;;24.05;21.50;;;9.00;99.90;;;;;;5032731;28;20132;-79
2022/05/03 06:42:54;;;;;;;24.40;20.40;;;9.10;99.90;;;;;;5013487;28;20033;-79
2022/05/03 06:45:20;;;;;;;23.90;20.30;;;9.10;99.90;;;;;;5031278;28;20371;-79
2022/05/03 06:47:48;;;;;;;29.40;21.75;;;9.20;99.90;;;;;;5031373;28;20049;-79
2022/05/03 06:50:14;;;;;;;23.35;20.10;;;9.30;99.90;;;;;;5032963;28;20092;-80
2022/05/03 06:52:40;;;;;;;26.80;23.13;;;9.40;99.90;;;;;;5037121;22;20045;-79
2022/05/03 06:55:06;;;;;;;32.25;24.70;;;9.40;99.90;;;;;;5030689;28;20449;-80
2022/05/03 06:57:32;;;;;;;30.13;24.73;;;9.50;99.90;;;;;;5048593;28;20421;-80
2022/05/03 07:00:01;;;;;;;32.70;25.80;;;9.50;99.90;;;;;;5009542;28;20041;-78
2022/05/03 07:02:31;;;;;;;34.28;26.80;;;9.60;99.90;;;;;;5031016;28;20144;-80
2022/05/03 07:04:59;;;;;;;36.47;24.58;;;9.60;99.90;;;;;;5029398;28;20051;-81
2022/05/03 07:07:26;;;;;;;30.73;25.02;;;9.60;99.90;;;;;;5024983;28;20151;-80
2022/05/03 07:09:51;;;;;;;33.78;25.58;;;9.60;99.90;;;;;;5031102;28;20037;-79
2022/05/03 07:12:17;;;;;;;35.58;26.15;;;9.60;99.90;;;;;;5020371;28;20037;-80
2022/05/03 07:14:42;;;;;;;33.35;26.20;;;9.70;99.90;;;;;;5016033;28;20249;-80
2022/05/03 07:17:08;;;;;;;31.05;25.75;;;9.70;99.90;;;;;;5031291;28;20045;-80
2022/05/03 07:25:02;;;;;;;33.63;23.35;;;9.80;99.90;;;;;;5032650;28;20431;-79
2022/05/03 07:27:28;;;;;;;24.77;17.35;;;9.80;99.90;;;;;;5014631;28;20047;-79
2022/05/03 07:29:54;;;;;;;26.17;14.52;;;9.70;99.90;;;;;;5031830;28;20073;-81
2022/05/03 07:32:19;;;;;;;20.27;12.70;;;9.60;99.90;;;;;;5016285;28;20118;-80
2022/05/03 07:34:46;;;;;;;18.60;10.63;;;9.60;99.90;;;;;;5048923;28;20033;-81
2022/05/03 07:37:12;;;;;;;19.08;8.90;;;9.60;99.90;;;;;;5033713;28;20391;-81
2022/05/03 07:39:39;;;;;;;14.18;8.02;;;9.60;99.90;;;;;;5033280;28;20048;-80
2022/05/03 07:42:05;;;;;;;12.52;6.47;;;9.60;99.90;;;;;;5037716;28;20165;-79
2022/05/03 07:44:30;;;;;;;14.13;7.75;;;9.60;99.90;;;;;;5029422;28;20049;-81
2022/05/03 07:46:57;;;;;;;14.18;6.50;;;9.50;99.90;;;;;;5030988;28;20072;-81
2022/05/03 07:49:22;;;;;;;10.35;5.55;;;9.50;99.90;;;;;;5031843;28;20041;-81
2022/05/03 07:51:48;;;;;;;12.02;5.35;;;9.50;99.90;;;;;;5041642;28;20491;-81
2022/05/03 07:54:14;;;;;;;12.07;6.28;;;9.50;99.90;;;;;;5033431;28;20052;-81
2022/05/03 07:56:40;;;;;;;8.40;5.90;;;9.50;99.90;;;;;;5016543;28;20486;-81
2022/05/03 07:59:08;;;;;;;12.52;5.88;;;9.60;99.90;;;;;;5023312;28;20037;-82
2022/05/03 08:01:34;;;;;;;12.25;6.10;;;9.60;99.90;;;;;;5020225;28;20041;-78
2022/05/03 08:03:59;;;;;;;11.68;6.30;;;9.60;99.90;;;;;;5030777;28;20099;-80
2022/05/03 08:06:27;;;;;;;14.43;5.88;;;9.50;99.90;;;;;;5022933;28;20478;-80
2022/05/03 08:08:52;;;;;;;11.20;6.03;;;9.60;99.90;;;;;;5038009;28;20073;-79
2022/05/03 08:11:18;;;;;;;11.07;6.40;;;9.60;99.90;;;;;;5045599;28;20080;-79
2022/05/03 08:13:45;;;;;;;13.23;7.00;;;9.70;99.90;;;;;;5014833;28;20029;-79
2022/05/03 08:16:19;;;;;;;20.73;7.32;;;9.80;99.90;;;;;;5030463;28;20048;-82
2022/05/03 08:18:45;;;;;;;13.52;6.22;;;9.80;99.90;;;;;;5018850;28;20030;-79
2022/05/03 08:21:11;;;;;;;15.63;6.80;;;9.90;99.90;;;;;;5030467;28;20565;-79
2022/05/03 08:23:38;;;;;;;13.93;6.38;;;10.00;99.90;;;;;;5027073;28;20421;-80
2022/05/03 08:26:03;;;;;;;16.35;7.00;;;10.00;99.90;;;;;;5029001;28;20124;-79
2022/05/03 08:28:29;;;;;;;19.50;6.78;;;9.90;99.90;;;;;;5031029;28;20137;-79
2022/05/03 08:30:54;;;;;;;21.23;7.75;;;10.00;99.90;;;;;;5047328;28;20128;-80
2022/05/03 08:33:20;;;;;;;11.68;6.80;;;10.10;99.90;;;;;;5030796;28;20128;-80
2022/05/03 08:35:45;;;;;;;18.00;8.25;;;10.00;99.90;;;;;;5028145;28;20131;-81
2022/05/03 08:43:40;;;;;;;16.35;6.60;;;10.10;99.90;;;;;;5037329;28;20128;-80
2022/05/03 08:46:06;;;;;;;17.13;5.72;;;9.80;99.90;;;;;;5031663;28;20459;-80
2022/05/03 08:48:34;;;;;;;17.13;5.90;;;9.90;99.90;;;;;;5031027;28;20491;-81
2022/05/03 08:51:00;;;;;;;12.85;5.10;;;10.00;99.90;;;;;;5030646;28;20052;-80
2022/05/03 08:53:26;;;;;;;19.52;6.28;;;10.00;99.90;;;;;;5043366;28;20053;-81
2022/05/03 08:55:52;;;;;;;15.98;5.50;;;10.10;99.90;;;;;;5030699;28;20095;-82
2022/05/03 08:58:19;;;;;;;13.30;5.63;;;10.20;99.90;;;;;;5046415;28;20038;-80
2022/05/03 09:00:45;;;;;;;17.02;6.75;;;10.30;99.90;;;;;;5026270;28;20049;-86
2022/05/03 09:03:12;;;;;;;17.42;6.35;;;10.30;99.90;;;;;;5031009;28;20450;-85
2022/05/03 09:05:39;;;;;;;14.65;5.63;;;10.60;99.90;;;;;;5029153;28;20517;-84
2022/05/03 09:08:08;;;;;;;20.33;5.22;;;10.60;99.90;;;;;;5033745;28;20049;-85
2022/05/03 09:10:36;;;;;;;13.32;5.40;;;10.60;99.90;;;;;;5028270;28;20072;-85
2022/05/03 09:13:35;;;;;;;16.70;5.85;;;10.80;99.90;;;;;;5012075;28;20076;-84
2022/05/03 09:16:16;;;;;;;16.70;6.03;;;10.80;99.90;;;;;;5008388;28;20085;-86
2022/05/03 09:18:42;;;;;;;20.35;7.57;;;10.70;99.90;;;;;;5046162;28;20065;-85
2022/05/03 09:24:10;;;;;;;17.10;5.63;;;10.90;99.90;;;;;;5048695;28;20037;-85
2022/05/03 09:26:37;;;;;;;17.52;4.53;;;10.90;99.90;;;;;;5029640;28;20731;-84
2022/05/03 09:29:06;;;;;;;19.63;5.18;;;11.10;99.90;;;;;;5047049;28;20142;-84
2022/05/03 09:31:40;;;;;;;16.67;4.88;;;11.20;99.90;;;;;;5028960;28;20034;-84
2022/05/03 09:34:25;;;;;;;12.90;4.30;;;11.30;99.90;;;;;;5023610;28;20108;-83
2022/05/03 09:36:55;;;;;;;13.20;4.53;;;11.30;99.90;;;;;;5044409;28;20380;-85
2022/05/03 09:39:26;;;;;;;15.45;4.63;;;11.40;99.90;;;;;;5029594;28;20100;-84
2022/05/03 09:42:09;;;;;;;13.98;4.18;;;11.20;99.90;;;;;;5026828;28;20053;-84
2022/05/03 09:44:55;;;;;;;13.27;4.22;;;11.20;99.90;;;;;;5026325;28;20120;-84
2022/05/03 09:47:22;;;;;;;14.73;4.03;;;11.40;99.90;;;;;;5026835;28;20041;-84
2022/05/03 09:49:48;;;;;;;10.68;3.60;;;11.60;99.90;;;;;;5046539;28;20395;-84
2022/05/03 09:52:30;;;;;;;15.43;3.83;;;11.90;99.90;;;;;;5030671;28;20045;-84
2022/05/03 09:54:59;;;;;;;;;;;11.90;99.90;;;;;;5046971;28;20125;-84
2022/05/03 09:57:27;;;;;;;14.05;3.30;;;11.70;99.90;;;;;;5032170;28;19960;-85
2022/05/03 09:59:54;;;;;;;14.27;3.60;;;11.60;99.90;;;;;;5014525;28;20041;-85
2022/05/03 10:02:26;;;;;;;12.35;3.30;;;11.60;99.90;;;;;;5015402;28;20128;-87
2022/05/03 10:04:53;;;;;;;13.45;3.63;;;11.50;99.90;;;;;;5032861;28;20038;-86
2022/05/03 10:07:23;;;;;;;8.38;3.33;;;11.30;99.90;;;;;;5019964;28;20463;-85
2022/05/03 10:09:49;;;;;;;10.75;3.50;;;11.20;99.90;;;;;;5052012;28;20052;-86
2022/05/03 10:12:17;;;;;;;17.17;3.83;;;11.40;99.90;;;;;;5032363;28;20420;-87
2022/05/03 10:14:44;;;;;;;12.48;3.40;;;11.30;99.90;;;;;;5032869;28;20080;-86
2022/05/03 10:20:42;;;;;;;14.75;3.63;;;11.50;99.90;;;;;;5034237;28;20099;-85
2022/05/03 10:23:28;;;;;;;11.45;3.40;;;11.60;99.90;;;;;;5033545;28;20130;-85
2022/05/03 10:26:01;;;;;;;13.07;3.35;;;12.10;99.90;;;;;;5029258;28;20052;-86
2022/05/03 10:28:55;;;;;;;12.10;3.78;;;12.30;99.90;;;;;;5031429;28;20064;-85
2022/05/03 10:31:21;;;;;;;14.10;3.63;;;12.90;99.90;;;;;;5045540;28;20132;-85
2022/05/03 10:33:47;;;;;;;10.55;4.05;;;13.20;99.90;;;;;;5035254;28;20116;-85
2022/05/03 10:36:33;;;;;;;11.73;3.72;;;13.40;99.90;;;;;;5032176;28;20506;-86
2022/05/03 10:39:11;;;;;;;14.48;3.22;;;13.10;99.90;;;;;;5041005;28;20052;-86
2022/05/03 10:42:01;;;;;;;9.73;3.05;;;12.90;99.90;;;;;;5047502;28;20044;-86
2022/05/03 10:44:46;;;;;;;11.32;3.60;;;13.10;99.90;;;;;;5032785;28;20059;-86
2022/05/03 10:47:17;;;;;;;12.23;3.65;;;13.20;99.90;;;;;;5015074;28;20053;-85
2022/05/03 10:50:17;;;;;;;10.85;3.60;;;13.50;99.90;;;;;;5024062;28;20046;-88
2022/05/03 10:52:56;;;;;;;7.47;2.70;;;13.70;99.90;;;;;;5033714;28;20474;-86
2022/05/03 10:55:23;;;;;;;11.43;2.97;;;13.30;99.90;;;;;;5030230;28;20042;-85
2022/05/03 10:58:18;;;;;;;9.07;3.05;;;13.40;99.90;;;;;;5032218;28;20034;-86
2022/05/03 11:01:16;;;;;;;13.80;3.20;;;13.30;99.90;;;;;;5048520;28;20041;-86
2022/05/03 11:04:06;;;;;;;7.03;2.78;;;13.30;99.90;;;;;;5036895;28;20042;-87
2022/05/03 11:06:38;;;;;;;8.05;3.15;;;13.40;99.30;;;;;;5023096;28;20053;-92
2022/05/03 11:11:39;;;;;;;8.85;3.03;;;13.30;98.50;;;;;;5048443;28;20431;-92
2022/05/03 11:14:05;;;;;;;9.07;2.95;;;13.40;98.80;;;;;;5018347;28;20045;-93
2022/05/03 11:16:34;;;;;;;11.02;3.03;;;13.60;98.90;;;;;;5033963;28;20038;-94
2022/05/03 11:19:14;;;;;;;7.63;2.90;;;13.50;98.00;;;;;;5027231;28;20037;-91
2022/05/03 11:21:41;;;;;;;6.88;2.70;;;;;;;;;;5031456;28;20029;-92
2022/05/03 11:24:26;;;;;;;7.43;2.63;;;14.00;99.90;;;;;;5032771;28;20034;-92
2022/05/03 11:26:53;;;;;;;6.25;2.45;;;13.80;99.20;;;;;;5037590;28;20063;-93
2022/05/03 11:29:19;;;;;;;8.60;2.42;;;14.20;99.90;;;;;;5033894;28;20091;-93
2022/05/03 11:31:50;;;;;;;5.65;2.95;;;14.00;94.10;;;;;;5049726;28;20041;-91
2022/05/03 11:34:17;;;;;;;8.57;2.70;;;14.20;95.30;;;;;;5032139;28;20045;-90
2022/05/03 11:36:44;;;;;;;6.32;2.60;;;14.60;95.90;;;;;;5035400;28;20087;-92
2022/05/03 11:39:10;;;;;;;7.75;2.42;;;14.60;93.20;;;;;;5051194;28;20824;-92
2022/05/03 11:41:37;;;;;;;8.50;2.83;;;14.70;94.80;;;;;;5035298;28;20091;-93
2022/05/03 11:44:03;;;;;;;6.18;2.53;;;14.70;94.60;;;;;;5035621;28;20041;-93
2022/05/03 11:46:29;;;;;;;8.32;2.60;;;14.80;94.40;;;;;;5014691;28;20037;-93
2022/05/03 11:49:01;;;;;;;9.20;2.50;;;14.10;94.30;;;;;;5032547;28;20041;-91
2022/05/03 11:57:14;;;;;;;7.32;2.40;;;14.80;96.20;;;;;;5048117;28;20045;-90
2022/05/03 11:59:41;;;;;;;8.55;2.00;;;15.00;93.50;;;;;;5046866;28;20513;-92
2022/05/03 12:02:31;;;;;;;6.53;2.20;;;14.70;93.90;;;;;;5030390;28;20067;-91
2022/05/03 12:05:12;;;;;;;5.93;2.13;;;14.90;93.40;;;;;;5029264;28;20076;-91
2022/05/03 12:07:38;;;;;;;6.97;1.90;;;15.00;94.90;;;;;;5028890;28;20037;-89
2022/05/03 12:10:26;;;;;;;6.55;1.90;;;15.00;92.80;;;;;;5027639;28;20057;-83
2022/05/03 12:13:12;;;;;;;5.80;2.05;;;15.00;93.50;;;;;;5035842;28;20125;-91
2022/05/03 12:15:41;;;;;;;6.63;1.90;;;14.50;92.70;;;;;;5029877;28;20176;-91
2022/05/03 12:18:23;;;;;;;6.35;2.20;;;14.30;93.50;;;;;;5031819;28;20098;-88
2022/05/03 12:20:58;;;;;;;5.82;1.90;;;14.60;94.50;;;;;;5031599;28;20430;-91
2022/05/03 12:23:33;;;;;;;5.05;1.65;;;14.50;92.60;;;;;;5031035;28;20045;-89
2022/05/03 12:26:01;;;;;;;8.73;2.30;;;14.60;93.70;;;;;;5011142;28;20400;-89
2022/05/03 12:28:44;;;;;;;6.65;1.80;;;14.70;92.30;;;;;;5031222;28;20168;-90
2022/05/03 12:31:14;;;;;;;5.55;2.00;;;15.20;93.50;;;;;;5017096;28;20045;-92
2022/05/03 12:33:44;;;;;;;3.88;1.98;;;15.60;92.60;;;;;;5032002;28;20044;-91
2022/05/03 12:36:10;;;;;;;4.68;1.83;;;15.20;89.70;;;;;;5028975;28;20106;-92
2022/05/03 12:38:49;;;;;;;6.68;1.95;;;14.80;91.80;;;;;;5013809;28;20534;-92
2022/05/03 12:41:30;;;;;;;10.13;2.47;;;15.00;91.20;;;;;;5043635;28;20049;-89
2022/05/03 12:44:00;;;;;;;5.28;2.17;;;15.20;92.40;;;;;;5027088;28;20046;-92
2022/05/03 12:46:28;;;;;;;8.35;2.13;;;15.30;92.50;;;;;;5022259;28;20053;-90
2022/05/03 12:48:53;;;;;;;5.63;2.15;;;15.30;91.40;;;;;;5032065;28;20049;-91
2022/05/03 12:51:19;;;;;;;5.60;2.03;;;15.10;91.70;;;;;;5037267;28;20037;-90
2022/05/03 12:53:47;;;;;;;6.22;2.08;;;15.30;90.70;;;;;;5033404;28;20115;-91
2022/05/03 12:58:58;;;;;;;5.57;2.65;;;15.20;89.60;;;;;;5030011;28;20061;-86
2022/05/03 13:01:24;;;;;;;5.25;1.98;;;15.50;92.10;;;;;;5036239;28;20624;-86
2022/05/03 13:03:50;;;;;;;5.85;2.00;;;15.20;88.70;;;;;;5031166;28;20042;-86
2022/05/03 13:06:17;;;;;;;6.18;2.65;;;14.70;88.80;;;;;;5014119;28;20037;-86
2022/05/03 13:08:43;;;;;;;5.45;2.33;;;15.10;91.20;;;;;;5033169;28;20390;-87
2022/05/03 13:11:09;;;;;;;5.00;1.60;;;15.40;90.90;;;;;;5031902;28;20613;-90
2022/05/03 13:13:35;;;;;;;7.97;4.00;;;14.60;90.50;;;;;;5029050;28;20104;-88
2022/05/03 13:16:01;;;;;;;7.07;1.90;;;14.50;91.30;;;;;;5027393;28;20072;-87
2022/05/03 13:18:27;;;;;;;5.85;2.45;;;14.90;92.20;;;;;;5030525;28;20041;-88
2022/05/03 13:20:54;;;;;;;9.02;2.33;;;14.90;90.30;;;;;;5030142;28;20060;-88
2022/05/03 13:23:20;;;;;;;7.60;2.33;;;15.20;91.50;;;;;;5032890;28;20499;-87
2022/05/03 13:25:45;;;;;;;4.57;2.05;;;15.00;89.30;;;;;;5032982;28;20040;-87
2022/05/03 13:28:11;;;;;;;8.18;2.65;;;15.10;87.90;;;;;;5029513;28;20517;-88
2022/05/03 13:30:37;;;;;;;5.90;1.95;;;14.40;90.50;;;;;;5040059;28;20025;-87
2022/05/03 13:33:03;;;;;;;4.35;1.92;;;14.70;90.60;;;;;;5052136;28;20046;-88
2022/05/03 13:40:57;;;;;;;4.15;1.92;;;15.20;91.70;;;;;;5029315;28;20050;-86
2022/05/03 13:43:23;;;;;;;6.20;2.45;;;15.10;89.30;;;;;;5034636;28;20590;-86
2022/05/03 13:45:49;;;;;;;5.55;1.77;;;14.80;87.40;;;;;;5029498;28;20037;-88
2022/05/03 13:48:16;;;;;;;7.63;1.60;;;14.50;89.30;;;;;;5028665;28;20041;-84